To NAV CANADA Home Page Login to a new session Search on AWWS site Disclaimer Vers la page française équivalente Tips FAQ What's new on the site To the Forecasts and Observations / NOTAM section To "File a Flight Plan" website Publications and other links Update of the User's profile FIC Telephone Numbers My Weather Data Folder Route Weather Data Regional Weather Data Local Weather Data To the Forecasts and Observations / NOTAM section
Request Generated 10/19/2018 at 16:14:36 UTC . Weather information available at that time is displayed.

METAR/TAF

FORT SMITH/NT    

METAR CYSM 191600Z 34005KT 300V360 15SM BKN018 M04/M07 A3036 RMK SC7 SLP297=
METAR CYSM 191500Z 34004KT 300V360 15SM OVC019 M05/M07 A3034 RMK SC8 SLP290=
METAR CYSM 191400Z 30006KT 15SM BKN019 M05/M08 A3032 RMK SC7 SLP285=

TAF CYSM 191138Z 1912/1924 33008KT P6SM SCT015 TEMPO 1912/1920 4SM BR
SCT008 BKN015
FM192000 30008KT P6SM FEW020
RMK NXT FCST BY 191800Z=
Your time UTC time
Weather data provided by Environment Canada and NAV CANADA